Aérodrome :
LOGIN :

S'inscrire | Disclaimer

   EN    FR    IT 

 










Légende :    VFR   VFR Marginal   IFR   IFR Intensif   IFR Très Intensif
Visi : 
Plafond : 
>= 8 km
>= 3000ft
5 à 8 km
1000 à 3000 ft
1500m à 5 km
500 à 1000 ft
800 à 1500m
200 à 500 ft
< 800m
< 200 ft
Symboles :   Orages  Brouillard  Fortes neiges  Fortes précipitations  Vent > 20 kt
SIGMETs :   Divers  Orages  Givrage  Turbulence  Onde Orograph.  Cendres Volcan.






- Altitude de l'aérodrome : 299 ft
- Code IATA : EDM


LFRI - La Roche Sur Yon - Les Ajoncs

DERNIER METAR :
  • 150230Z AUTO 24012KT 220V280 8000 -RA BKN007/// OVC014/// ///TCU 11/11 Q1003

METARs EXPIRÉS :
  • 150200Z AUTO 23013KT 9999 4600 -RA OVC009/// ///TCU 12/11 Q1003
  • 150130Z AUTO 22014KT 180V250 8000 -RA BKN007/// OVC014/// ///TCU 11/11 Q1002
  • 150100Z AUTO 21014KT 9999 -RA BKN008/// OVC017/// ///TCU 11/11 Q1003
  • 150030Z AUTO 21013KT 9999 -RA BKN008/// BKN014/// BKN020/// ///TCU 11/10 Q1003
  • 150000Z AUTO 21013KT 9999 -RA FEW011/// SCT031/// BKN070/// ///TCU 11/10 Q1003

TAF AMD TAF LFRI
Valide du 14 à 18h jusqu'au 15 à 18h UTC


141825Z 1418/1518 24010KT 9999 -RA BKN030
TEMPO 1418/1424 23020G35KT 2000 RA BKN004 BKN012
BECMG 1423/1501 24015G25KT NSW
TEMPO 1501/1518 4000 SHRA SCT012 BKN020
BECMG 1503/1505 25010KT



MET'MAP, la Météo Aéronautique d'un coup d'oeil ! - Copyright ORBIFLY Décembre 2007 - Disclaimer

ORBIFLY MET'MAP TEAM :

Programmation & Développement : Alexandra Zaïnal
Sur une idée originale de : Baudouin d'Aumeries
Assistance à la programmation : Marc-Olivier Méhu
Soutien technique & logistique : Manuel Goepfert

Contact : metmap@orbifly.com




SOURCES & CREDITS :

   NOAA